AFL707 UUEE-LXGB
Flight info
| Callsign | AFL707 |
|---|---|
| Flight time | N/A |
| Altitude | 32000 |
| Route | LIDRI3H LIDRI T781 REPNU N858 VEPIS Y219 LAPKI N869 OSMUS M984 LETKI/N0455F320 M984 KOTEK/N0415F240 M984 IBEKA/N0455F320 DCT MIKOV DCT LIMRA DCT DETSA/N0457F330 DCT OSKOR DCT VAMTU DCT DIVKO DCT NILDU/N0456F350 N975 BISBA DCT RODRA M985 ASTRO/N0401F230 M985 PIMOS |
| Aircraft | A321/M-SDE3FGHIRWY/LB1 |
Departure
| Time | 2026-05-06 12:37 |
|---|---|
| Airport | Sheremetyevo International Airport (UUEE) |
Arrival
| Time | N/A |
|---|---|
| Airport | Gibraltar Airport (LXGB) |
| Time | Latitude | Longitude | Altitude | Speed | Heading |
|---|---|---|---|---|---|
| 2026-05-06 12:15 | 55.97634 | 37.40417 | 639 ft | 0 kts | 345° |
| 2026-05-06 12:17 | 55.97633 | 37.40417 | 639 ft | 0 kts | 345° |
| 2026-05-06 12:29 | 55.97636 | 37.40416 | 639 ft | 3 kts | 345° |
| 2026-05-06 12:29 | 55.97676 | 37.40401 | 643 ft | 5 kts | 0° |
| 2026-05-06 12:29 | 55.97711 | 37.40495 | 642 ft | 14 kts | 73° |
| 2026-05-06 12:29 | 55.97677 | 37.40586 | 639 ft | 9 kts | 172° |
| 2026-05-06 12:30 | 55.97604 | 37.40642 | 641 ft | 14 kts | 133° |
| 2026-05-06 12:30 | 55.97606 | 37.40816 | 645 ft | 11 kts | 76° |
| 2026-05-06 12:30 | 55.97607 | 37.40887 | 641 ft | 0 kts | 105° |
| 2026-05-06 12:30 | 55.97601 | 37.40909 | 642 ft | 6 kts | 116° |
| 2026-05-06 12:31 | 55.97597 | 37.40994 | 639 ft | 5 kts | 78° |
| 2026-05-06 12:31 | 55.97605 | 37.41105 | 645 ft | 9 kts | 105° |
| 2026-05-06 12:31 | 55.97544 | 37.41217 | 642 ft | 17 kts | 99° |
| 2026-05-06 12:31 | 55.97581 | 37.41481 | 642 ft | 27 kts | 73° |
| 2026-05-06 12:32 | 55.97636 | 37.41847 | 643 ft | 35 kts | 75° |
| 2026-05-06 12:32 | 55.97703 | 37.42312 | 639 ft | 42 kts | 75° |
| 2026-05-06 12:32 | 55.97786 | 37.42862 | 639 ft | 49 kts | 75° |
| 2026-05-06 12:32 | 55.97871 | 37.43424 | 644 ft | 49 kts | 75° |
| 2026-05-06 12:33 | 55.97932 | 37.43839 | 643 ft | 25 kts | 75° |
| 2026-05-06 12:33 | 55.97950 | 37.43994 | 643 ft | 11 kts | 99° |
| 2026-05-06 12:33 | 55.97920 | 37.44038 | 639 ft | 0 kts | 169° |
| 2026-05-06 12:34 | 55.97919 | 37.44038 | 639 ft | 0 kts | 169° |
| 2026-05-06 12:34 | 55.97889 | 37.44051 | 642 ft | 9 kts | 166° |
| 2026-05-06 12:35 | 55.97813 | 37.44082 | 647 ft | 10 kts | 176° |
| 2026-05-06 12:35 | 55.97780 | 37.44020 | 642 ft | 1 kts | 248° |
| 2026-05-06 12:36 | 55.97777 | 37.43994 | 640 ft | 3 kts | 257° |
| 2026-05-06 12:36 | 55.97755 | 37.43840 | 641 ft | 36 kts | 255° |
| 2026-05-06 12:36 | 55.97631 | 37.43011 | 646 ft | 100 kts | 255° |
| 2026-05-06 12:36 | 55.97409 | 37.41527 | 641 ft | 149 kts | 255° |
| 2026-05-06 12:37 | 55.97101 | 37.39495 | 770 ft | 178 kts | 255° |
| 2026-05-06 12:37 | 55.96733 | 37.37382 | 1321 ft | 185 kts | 251° |
| 2026-05-06 12:37 | 55.96322 | 37.35195 | 2040 ft | 186 kts | 254° |
| 2026-05-06 12:37 | 55.95949 | 37.32939 | 2547 ft | 198 kts | 256° |
| 2026-05-06 12:38 | 55.95556 | 37.30422 | 2641 ft | 222 kts | 257° |
| 2026-05-06 12:38 | 55.95145 | 37.27624 | 2866 ft | 243 kts | 256° |
| 2026-05-06 12:38 | 55.94713 | 37.24677 | 3434 ft | 248 kts | 257° |
| 2026-05-06 12:38 | 55.94265 | 37.21679 | 4135 ft | 251 kts | 256° |
| 2026-05-06 12:39 | 55.93804 | 37.18652 | 4812 ft | 253 kts | 256° |
| 2026-05-06 12:39 | 55.93340 | 37.15642 | 5528 ft | 252 kts | 256° |
| 2026-05-06 12:39 | 55.92870 | 37.12647 | 6226 ft | 249 kts | 257° |
| 2026-05-06 12:39 | 55.92397 | 37.09652 | 6847 ft | 250 kts | 256° |
| 2026-05-06 12:40 | 55.91925 | 37.06664 | 7481 ft | 250 kts | 256° |
| 2026-05-06 12:40 | 55.91452 | 37.03673 | 8071 ft | 252 kts | 256° |
| 2026-05-06 12:40 | 55.91043 | 37.00634 | 8625 ft | 253 kts | 264° |
| 2026-05-06 12:40 | 55.91011 | 36.97491 | 9160 ft | 255 kts | 271° |
| 2026-05-06 12:41 | 55.91049 | 36.94330 | 9729 ft | 256 kts | 270° |
| 2026-05-06 12:41 | 55.91078 | 36.91175 | 9968 ft | 258 kts | 270° |
| 2026-05-06 12:41 | 55.91105 | 36.87937 | 10012 ft | 258 kts | 270° |
| 2026-05-06 12:41 | 55.91133 | 36.84780 | 10009 ft | 258 kts | 270° |
| 2026-05-06 12:42 | 55.91163 | 36.81589 | 10012 ft | 258 kts | 270° |
| 2026-05-06 12:42 | 55.91192 | 36.78380 | 10013 ft | 258 kts | 270° |
| 2026-05-06 12:42 | 55.91113 | 36.75191 | 10018 ft | 258 kts | 260° |
| 2026-05-06 12:42 | 55.90677 | 36.72020 | 10228 ft | 271 kts | 256° |
| 2026-05-06 12:43 | 55.90202 | 36.68669 | 10349 ft | 287 kts | 257° |
| 2026-05-06 12:43 | 55.89707 | 36.65113 | 10470 ft | 303 kts | 257° |
| 2026-05-06 12:43 | 55.89188 | 36.61382 | 10592 ft | 317 kts | 257° |
| 2026-05-06 12:43 | 55.88643 | 36.57485 | 10726 ft | 331 kts | 257° |
| 2026-05-06 12:44 | 55.88077 | 36.53453 | 11045 ft | 338 kts | 257° |
| 2026-05-06 12:44 | 55.87508 | 36.49415 | 11472 ft | 341 kts | 257° |
| 2026-05-06 12:44 | 55.86920 | 36.45266 | 11911 ft | 344 kts | 257° |
| 2026-05-06 12:44 | 55.86363 | 36.41117 | 12358 ft | 346 kts | 258° |
| 2026-05-06 12:45 | 55.85842 | 36.36907 | 12781 ft | 349 kts | 258° |
| 2026-05-06 12:45 | 55.85337 | 36.32678 | 13208 ft | 352 kts | 259° |
| 2026-05-06 12:45 | 55.84311 | 36.24087 | 13970 ft | 357 kts | 258° |
| 2026-05-06 12:46 | 55.83784 | 36.19750 | 14339 ft | 359 kts | 258° |
| 2026-05-06 12:46 | 55.83249 | 36.15392 | 14714 ft | 362 kts | 258° |
| 2026-05-06 12:46 | 55.82705 | 36.11016 | 15080 ft | 364 kts | 258° |
| 2026-05-06 12:46 | 55.82155 | 36.06619 | 15423 ft | 366 kts | 258° |
| 2026-05-06 12:47 | 55.81599 | 36.02187 | 15761 ft | 368 kts | 258° |
| 2026-05-06 12:47 | 55.81037 | 35.97744 | 16094 ft | 370 kts | 258° |
| 2026-05-06 12:47 | 55.80469 | 35.93270 | 16405 ft | 372 kts | 258° |
| 2026-05-06 12:47 | 55.79896 | 35.88785 | 16723 ft | 374 kts | 257° |
| 2026-05-06 12:48 | 55.79314 | 35.84266 | 17029 ft | 375 kts | 257° |
| 2026-05-06 12:48 | 55.78729 | 35.79730 | 17338 ft | 377 kts | 257° |
| 2026-05-06 12:48 | 55.78142 | 35.75183 | 17637 ft | 379 kts | 257° |
| 2026-05-06 12:48 | 55.77551 | 35.70610 | 17947 ft | 381 kts | 257° |
| 2026-05-06 12:49 | 55.76954 | 35.66008 | 18244 ft | 383 kts | 257° |
| 2026-05-06 12:49 | 55.76353 | 35.61394 | 18512 ft | 385 kts | 257° |
| 2026-05-06 12:49 | 55.75747 | 35.56758 | 18773 ft | 386 kts | 257° |
| 2026-05-06 12:49 | 55.75303 | 35.52049 | 19032 ft | 388 kts | 265° |
| 2026-05-06 12:50 | 55.75103 | 35.47276 | 19303 ft | 389 kts | 265° |
| 2026-05-06 12:50 | 55.74899 | 35.42479 | 19581 ft | 390 kts | 265° |
| 2026-05-06 12:50 | 55.74688 | 35.37661 | 19861 ft | 392 kts | 265° |
| 2026-05-06 12:50 | 55.74475 | 35.32825 | 20143 ft | 394 kts | 265° |
| 2026-05-06 12:51 | 55.74260 | 35.27967 | 20419 ft | 395 kts | 265° |
| 2026-05-06 12:51 | 55.74041 | 35.23094 | 20699 ft | 397 kts | 265° |
| 2026-05-06 12:51 | 55.73816 | 35.18196 | 20996 ft | 398 kts | 265° |
| 2026-05-06 12:51 | 55.73588 | 35.13293 | 21285 ft | 400 kts | 265° |
| 2026-05-06 12:52 | 55.73361 | 35.08363 | 21573 ft | 402 kts | 265° |
| 2026-05-06 12:52 | 55.73136 | 35.03421 | 21860 ft | 403 kts | 265° |
| 2026-05-06 12:52 | 55.72910 | 34.98452 | 22141 ft | 405 kts | 265° |
| 2026-05-06 12:52 | 55.72680 | 34.93472 | 22422 ft | 406 kts | 265° |
| 2026-05-06 12:53 | 55.72448 | 34.88466 | 22694 ft | 407 kts | 265° |
| 2026-05-06 12:53 | 55.72217 | 34.83442 | 22962 ft | 409 kts | 265° |
| 2026-05-06 12:53 | 55.71985 | 34.78417 | 23228 ft | 410 kts | 265° |
| 2026-05-06 12:53 | 55.71744 | 34.73356 | 23491 ft | 412 kts | 265° |
| 2026-05-06 12:54 | 55.71496 | 34.68285 | 23715 ft | 413 kts | 265° |
| 2026-05-06 12:54 | 55.71245 | 34.63201 | 23942 ft | 414 kts | 265° |
| 2026-05-06 12:54 | 55.70797 | 34.58150 | 24154 ft | 416 kts | 256° |
| 2026-05-06 12:54 | 55.69907 | 34.53263 | 24367 ft | 418 kts | 251° |
| 2026-05-06 12:55 | 55.68904 | 34.48429 | 24591 ft | 419 kts | 251° |
| 2026-05-06 12:55 | 55.67900 | 34.43566 | 24817 ft | 420 kts | 251° |
| 2026-05-06 12:55 | 55.66897 | 34.38700 | 25028 ft | 421 kts | 251° |
| 2026-05-06 12:55 | 55.65893 | 34.33824 | 25246 ft | 423 kts | 251° |
| 2026-05-06 12:56 | 55.64895 | 34.28987 | 25453 ft | 424 kts | 251° |
| 2026-05-06 12:56 | 55.63878 | 34.24085 | 25653 ft | 425 kts | 251° |
| 2026-05-06 12:56 | 55.62857 | 34.19177 | 25859 ft | 426 kts | 251° |
| 2026-05-06 12:56 | 55.61827 | 34.14251 | 26037 ft | 428 kts | 250° |
| 2026-05-06 12:57 | 55.60788 | 34.09307 | 26230 ft | 429 kts | 250° |
| 2026-05-06 12:57 | 55.59747 | 34.04364 | 26409 ft | 430 kts | 250° |
| 2026-05-06 12:57 | 55.58689 | 33.99339 | 26584 ft | 431 kts | 250° |
| 2026-05-06 12:57 | 55.57655 | 33.94432 | 26738 ft | 432 kts | 250° |
| 2026-05-06 12:58 | 55.56603 | 33.89455 | 26950 ft | 432 kts | 250° |
| 2026-05-06 12:58 | 55.55551 | 33.84495 | 27186 ft | 431 kts | 250° |
| 2026-05-06 12:58 | 55.54495 | 33.79535 | 27406 ft | 430 kts | 250° |
| 2026-05-06 12:58 | 55.53441 | 33.74601 | 27636 ft | 430 kts | 250° |
| 2026-05-06 12:59 | 55.52382 | 33.69663 | 27857 ft | 429 kts | 250° |
| 2026-05-06 12:59 | 55.51341 | 33.64721 | 28055 ft | 429 kts | 253° |
| 2026-05-06 12:59 | 55.50565 | 33.59652 | 28244 ft | 428 kts | 256° |
| 2026-05-06 12:59 | 55.49836 | 33.54562 | 28464 ft | 428 kts | 256° |
| 2026-05-06 13:00 | 55.49099 | 33.49477 | 28665 ft | 428 kts | 256° |
| 2026-05-06 13:00 | 55.48358 | 33.44395 | 28881 ft | 427 kts | 256° |
| 2026-05-06 13:00 | 55.47620 | 33.39328 | 29086 ft | 427 kts | 256° |
| 2026-05-06 13:00 | 55.46883 | 33.34272 | 29285 ft | 426 kts | 256° |
| 2026-05-06 13:01 | 55.46144 | 33.29222 | 29482 ft | 426 kts | 256° |
| 2026-05-06 13:01 | 55.45401 | 33.24180 | 29685 ft | 425 kts | 256° |
| 2026-05-06 13:01 | 55.44655 | 33.19145 | 29878 ft | 425 kts | 256° |
| 2026-05-06 13:01 | 55.43906 | 33.14109 | 30061 ft | 424 kts | 256° |
| 2026-05-06 13:02 | 55.43160 | 33.09093 | 30214 ft | 424 kts | 256° |
| 2026-05-06 13:02 | 55.42413 | 33.04075 | 30368 ft | 424 kts | 255° |
| 2026-05-06 13:02 | 55.40917 | 32.94063 | 30719 ft | 422 kts | 255° |